ADDS METAR Data INFO
IDs: Format: Raw Decoded Include TAF

Data at: 0449 UTC 21 Feb 2018

KALO 201512Z 30013G16KT 10SM BKN009 BKN080 OVC110 M01/M02 A2988 RMK AO2 UPB1455E06 CIG 007V016 P0000 T10111017
KALO 201503Z 28007KT 10SM UP BKN011 BKN024 OVC080 M01/M02 A2988 RMK AO2 UPB1455 P0000 T10111017
KALO 201454Z 27010KT 10SM SCT008 BKN015 OVC085 M01/M02 A2988 RMK AO2 FZRAE01 SLP127 P0000 60007 I1000 I3003 T10111017 53024
KALO 201418Z 27007KT 10SM OVC009 M01/M01 A2986 RMK AO2 LTG DSNT SE FZRAE01 CIG 007V012 P0000 I1000 T10061011
KALO 201401Z 28006KT 10SM BKN010 BKN022 OVC048 M01/M01 A2985 RMK AO2 LTG DSNT S AND SW FZRAE01 P0000 I1000 T10061011
KALO 201354Z 27007KT 5SM -FZRA BR SCT012 BKN021 OVC080 M01/M01 A2985 RMK AO2 LTG DSNT SW FZRAB00E11B38 SLP119 P0005 I1003 T10061011
KALO 201339Z 27005KT 4SM -FZRA BR FEW008 BKN021 OVC041 M01/M01 A2983 RMK AO2 FZRAB00E11B38 P0002 I1003 T10061011
KALO 201332Z 26006KT 10SM FEW008 BKN011 OVC040 M01/M01 A2985 RMK AO2 FZRAB00E11 PRESRR P0002 I1001 T10061011
KALO 201324Z 27005KT 10SM SCT011 BKN020 OVC040 M01/M01 A2983 RMK AO2 FZRAB00E11 P0002 I1001 T10061011
KALO 201311Z 27004KT 10SM BKN011 OVC041 M01/M01 A2982 RMK AO2 FZRAB00E11 P0002 I1001 T10061011
KALO 201307Z 29005KT 5SM -FZRA BR SCT011 OVC041 M01/M01 A2981 RMK AO2 FZRAB00 P0002 I1001 T10061011
KALO 201300Z 26005KT 5SM FZRA BR FEW009 OVC042 M01/M01 A2982 RMK AO2 FZRAB00 PRESRR P0000 I1001 T10061011
KALO 201254Z 27004KT 10SM FEW010 OVC042 M01/M01 A2982 RMK AO2 FZRAE09 SLP106 P0002 I1000 T10061011
KALO 201249Z 29004KT 10SM SCT010 OVC042 M01/M01 A2981 RMK AO2 FZRAE09 P0002 I1000
KALO 201237Z 30004KT 10SM BKN010 OVC042 M01/M01 A2980 RMK AO2 FZRAE09 CIG 008V012 P0002 I1000 T10061011
KALO 201214Z 29005KT 10SM BKN009 OVC019 M01/M01 A2982 RMK AO2 FZRAE09 P0002 I1000 T10061011
KALO 201202Z 27007KT 4SM -FZRA BR SCT008 OVC019 M01/M01 A2983 RMK AO2 P0002 I1000 T10061006
KALO 201154Z 29003KT 4SM FZRA BR BKN008 OVC019 M01/M01 A2981 RMK AO2 UPB50E51FZRAB51 SLP103 P0001 60025 70041 I1001 I6005 T10061011 11006 21006 55008
KALO 201054Z AUTO 28007KT 10SM BKN006 OVC013 M01/M01 A2979 RMK AO2 FZRAE27 CIG 005V010 SLP098 P0003 I1000 T10061006
KALO 201033Z AUTO 27011KT 10SM OVC006 M01/M01 A2981 RMK AO2 FZRAE27 P0003 I1000 T10061006
KALO 201003Z AUTO 29003KT 4SM -FZRA BR BKN005 BKN049 OVC075 M01/M01 A2976 RMK AO2 P0002 I1000 T10061006
KALO 200954Z AUTO 27010KT 4SM -FZRA BR SCT005 BKN050 OVC075 M01/M01 A2981 RMK AO2 LTG DSNT E FZRAB0856 PRESRR SLP103 P0019 I1004 T10061006
KALO 200938Z AUTO 13012KT 3SM FZRA BR FEW005 BKN049 OVC070 M01/M01 A2972 RMK AO2 LTG DSNT NE-SE FZRAB0856 PRESFR P0017 I1003 T10061006
KALO 200921Z AUTO 14006KT 3SM VCTS -FZRA BR FEW005 BKN045 OVC075 M01/M01 A2975 RMK AO2 LTG DSNT ALQDS FZRAB0856 P0012 I1002 T10061006
KALO 200912Z AUTO 12005KT 2SM VCTS FZRA BR SCT003 BKN030 OVC043 M01/M01 A2975 RMK AO2 LTG DSNT ALQDS FZRAB0856 P0010 I1002 T10061006
KALO 200905Z AUTO VRB04KT 1 3/4SM VCTS FZRA BR BKN002 BKN032 OVC039 M01/M01 A2977 RMK AO2 LTG DSNT ALQDS FZRAB0856 P0006 I1001 T10061006
KALO 200857Z AUTO VRB03G29KT 3SM VCTS FZRA BR OVC002 M01/M01 A2978 RMK AO2 LTG DSNT SW-N FZRAB56 P0000 I1000 T10061006
KALO 200854Z AUTO 28017G29KT 3SM VCTS BR OVC002 M01/M01 A2984 RMK AO2 PK WND 27029/0848 LTG DSNT SW-N UPE41 SLP112 P0001 60002 I1000 I3000 T10061006 53024
KALO 200849Z AUTO 27019G29KT 2SM VCTS BR OVC002 M01/M01 A2983 RMK AO2 PK WND 27029/0848 LTG DSNT SW-N UPE41 PRESRR P0001 I1000
KALO 200822Z AUTO 27009KT 1 1/4SM R12/5500VP6000FT UP BR OVC002 M01/M01 A2978 RMK AO2 LTG DSNT SE AND W AND NW PRESRR P0000 T10061006
KALO 200809Z AUTO 15003KT 3/4SM R12/3500V4500FT UP BR OVC002 M01/M01 A2975 RMK AO2 P0000 T10061006
KALO 200754Z AUTO 00000KT 1SM R12/3500V5000FT UP BR OVC002 M01/M01 A2975 RMK AO2 LTG DSNT S UPB33 TSB35E50 SLP083 P0001 T10061006
KALO 200741Z AUTO 30005KT 1 1/4SM R12/4000V5000FT TSUP BR OVC002 M01/M01 A2977 RMK AO2 LTG DSNT W UPB33 TSB35 P0001 T10061006
KALO 200713Z AUTO 33003KT 1 3/4SM BR OVC003 M01/M01 A2977 RMK AO2 PRESFR T10061006
KALO 200654Z AUTO 21004KT 2 1/2SM BR OVC003 M01/M01 A2979 RMK AO2 SLP096 T10061006
KALO 200634Z AUTO 23003KT 3SM BR OVC003 M01/M01 A2978 RMK AO2 T10061006
KALO 200554Z AUTO 35006KT 2SM BR OVC003 M01/M01 A2976 RMK AO2 SLP087 T10061006 10017 21006 400331006 58008
KALO 200541Z AUTO 31004KT 2SM BR OVC003 M01/M01 A2978 RMK AO2 T10061006
KALO 200528Z AUTO 30005KT 1 3/4SM BR OVC003 M01/M01 A2979 RMK AO2 T10061006
KALO 200454Z AUTO 29007KT 2SM BR OVC003 00/00 A2980 RMK AO2 SLP100 T00000000
KALO 200452Z AUTO 28006KT 2SM BR OVC003 00/00 A2980 RMK AO2
KALO 200354Z AUTO 28006KT 1 1/4SM BR OVC002 00/00 A2979 RMK AO2 SLP096 T00000000
KALO 200254Z AUTO 27004KT 1SM R12/5000V5500FT BR OVC002 01/01 A2977 RMK AO2 SLP090 T00060006 53021
KALO 200234Z AUTO 28006KT 1SM R12/4000V5000FT BR OVC002 01/01 A2976 RMK AO2 T00060006
KALO 200154Z AUTO 27006KT 3/4SM R12/3500V4000FT BR OVC002 01/01 A2974 RMK AO2 SLP080 T00060006
KALO 200054Z 29005KT 1/2SM R12/2400V3000FT FG VV003 02/02 A2973 RMK AO2 SLP075 T00170017
KALO 192354Z 27004KT 1/2SM R12/2400V2600FT FG VV003 02/02 A2971 RMK AO2 SLP067 60005 T00170017 10028 20017 53013
KALO 192301Z 35004KT 1/4SM R12/2400V3500FT FG OVC003 02/02 A2969 RMK AO2 T00220022
KALO 192254Z 35003KT 1/2SM R12/2800V3500FT FG OVC003 02/02 A2969 RMK AO2 SLP060 T00220022
KALO 192246Z 35004KT 1/2SM R12/2800V4000FT FG OVC003 02/02 A2969 RMK AO2 T00220022
KALO 192154Z 33003KT 1/4SM R12/2200V3000FT FG OVC002 03/03 A2968 RMK AO2 SLP059 T00280028
KALO 192115Z 04004KT 3/4SM R12/2200V4500FT BR OVC003 03/03 A2967 RMK AO2 T00280028
KALO 192054Z 00000KT 1 1/2SM R12/5000VP6000FT BR OVC003 03/03 A2967 RMK AO2 SLP054 60005 T00280028 55001
KALO 192046Z 09005KT 1 3/4SM R12/6000VP6000FT BR OVC003 03/03 A2966 RMK AO2 T00280028
KALO 192014Z 08005KT 2SM BR OVC003 03/03 A2966 RMK AO2 T00280028
KALO 192002Z 08008KT 3SM BR OVC003 02/02 A2964 RMK AO2 T00220022
KALO 191954Z 07006KT 2 1/2SM BR OVC003 02/02 A2965 RMK AO2 RAE21 SLP047 P0003 T00220022
KALO 191946Z 08006KT 1 3/4SM BR OVC003 02/02 A2965 RMK AO2 RAE21 P0003 T00220022
KALO 191937Z 06005KT 2SM BR OVC003 02/02 A2965 RMK AO2 RAE21 P0003 T00220022
KALO 191920Z 04006KT 3SM -RA BR OVC003 02/02 A2965 RMK AO2 P0003 T00220022
KALO 191854Z 03005KT 1 1/4SM R12/5000VP6000FT -RA BR OVC003 02/02 A2966 RMK AO2 RAB32 SLP052 P0002 T00220022
KALO 191852Z 36003KT 1 1/4SM R12/4500VP6000FT -RA BR OVC003 02/02 A2967 RMK AO2 RAB32 P0002
KALO 191837Z 02004KT 3/4SM R12/4500V5500FT -RA BR OVC003 02/02 A2967 RMK AO2 RAB32 P0001 T00220022
KALO 191820Z 04004KT 1SM R12/4000V5000FT BR OVC003 02/02 A2967 RMK AO2 T00220022
KALO 191807Z 06006KT 3/4SM R12/4000V4500FT BR OVC003 02/02 A2968 RMK AO2 T00220022
KALO 191754Z 07006KT 1SM R12/4000V5000FT BR OVC003 02/02 A2968 RMK AO2 SLP057 60011 T00220022 10022 20011 58010
KALO 191711Z 07005KT 1 1/2SM R12/6000VP6000FT BR OVC004 02/02 A2969 RMK AO2 T00220022
KALO 191654Z 05007KT 2SM BR OVC003 02/02 A2969 RMK AO2 UPE1558B18E23RAB1558E18 SLP061 P0003 T00220022